Time;durP1;ratioP1;P1;durP2;ratioP2;P2;SDS_P1;SDS_P2;PMS_P1;PMS_P2;Temp;Humidity;BMP_temperature;BMP_pressure;BME280_temperature;BME280_humidity;BME280_pressure;Samples;Min_cycle;Max_cycle;Signal;HPM_P1;HPM_P2
2022/08/08 00:00:51;;;;;;;17.27;11.40;;;;;;;19.32;60.58;102059.16;4895631;28;120585;-84
2022/08/08 00:03:24;;;;;;;15.43;11.00;;;;;;;19.34;60.68;102062.22;4895448;28;120702;-85
2022/08/08 00:05:59;;;;;;;16.10;10.80;;;;;;;19.36;60.77;102053.41;4912625;28;119704;-85
2022/08/08 00:08:47;;;;;;;15.30;10.10;;;;;;;19.30;60.43;102054.06;4896776;28;119475;-85
2022/08/08 00:11:19;;;;;;;10.75;7.97;;;;;;;19.33;59.46;102055.88;4912073;28;121838;-85
2022/08/08 00:14:06;;;;;;;12.70;8.67;;;;;;;19.26;59.06;102055.50;4896736;28;119697;-85
2022/08/08 00:17:01;;;;;;;11.60;9.05;;;;;;;19.24;59.22;102064.34;4899990;28;119589;-84
2022/08/08 00:19:34;;;;;;;10.90;8.38;;;;;;;19.19;59.02;102061.44;4912758;28;119408;-85
2022/08/08 00:22:27;;;;;;;12.05;8.57;;;;;;;19.15;59.31;102060.84;4897324;28;120002;-83
2022/08/08 00:25:07;;;;;;;14.40;9.27;;;;;;;19.11;59.63;102066.59;4904815;28;119917;-85
2022/08/08 00:27:36;;;;;;;15.88;9.88;;;;;;;19.04;59.85;102057.88;4920283;28;119515;-84
2022/08/08 00:30:06;;;;;;;15.23;10.00;;;;;;;19.03;59.72;102065.44;4896793;28;120069;-85
2022/08/08 00:32:50;;;;;;;14.75;10.18;;;;;;;19.00;59.94;102058.81;4895152;28;119563;-85
2022/08/08 00:35:40;;;;;;;14.98;10.95;;;;;;;18.97;60.13;102062.56;4912002;28;119646;-85
2022/08/08 00:38:09;;;;;;;19.20;12.57;;;;;;;18.94;60.71;102063.50;4926431;28;119559;-85
2022/08/08 00:40:35;;;;;;;17.13;11.57;;;;;;;18.94;60.93;102069.06;4934709;28;120526;-84
2022/08/08 00:43:25;;;;;;;15.68;10.35;;;;;;;18.83;60.41;102057.72;4912298;28;119799;-85
2022/08/08 00:46:29;;;;;;;18.23;12.80;;;;;;;18.89;60.39;102072.50;4895671;28;119928;-84
2022/08/08 00:49:18;;;;;;;19.50;13.23;;;;;;;18.85;60.85;102065.56;4896562;28;119775;-85
2022/08/08 00:51:44;;;;;;;20.60;13.57;;;;;;;18.85;61.50;102065.56;4880631;28;119397;-85
2022/08/08 00:54:36;;;;;;;20.75;13.80;;;;;;;18.84;61.32;102061.25;4912171;28;120082;-85
2022/08/08 00:57:40;;;;;;;19.02;12.77;;;;;;;18.84;60.87;102059.25;4927971;28;119986;-85
2022/08/08 01:00:15;;;;;;;19.20;13.50;;;;;;;18.81;61.09;102062.97;4896664;28;119859;-84
2022/08/08 01:02:50;;;;;;;18.13;11.97;;;;;;;18.85;61.03;102060.78;4911667;28;120249;-84
2022/08/08 01:06:06;;;;;;;17.80;12.20;;;;;;;18.84;60.46;102058.47;4916171;28;120005;-84
2022/08/08 01:09:12;;;;;;;19.05;13.60;;;;;;;18.77;60.95;102061.63;4911514;28;120238;-85
2022/08/08 01:12:36;;;;;;;22.67;14.43;;;;;;;18.72;61.33;102065.06;4898520;28;119828;-85
2022/08/08 01:15:27;;;;;;;18.98;13.38;;;;;;;18.70;61.79;102062.75;4898588;28;120039;-85
2022/08/08 01:18:18;;;;;;;19.63;13.53;;;;;;;18.72;61.33;102070.63;4911159;28;119865;-85
2022/08/08 01:21:03;;;;;;;18.33;13.57;;;;;;;18.73;61.26;102064.59;4927030;22;120494;-77
2022/08/08 01:24:13;;;;;;;22.40;13.90;;;;;;;18.78;61.65;102069.50;4918098;28;120061;-78
2022/08/08 01:27:18;;;;;;;21.90;14.63;;;;;;;18.82;61.94;102072.84;4923754;28;120190;-77
2022/08/08 01:30:26;;;;;;;18.80;13.35;;;;;;;18.86;61.36;102067.88;4898810;28;120458;-77
2022/08/08 01:33:14;;;;;;;21.20;13.75;;;;;;;18.90;61.38;102070.47;4915153;28;120509;-77
2022/08/08 01:36:22;;;;;;;22.30;14.13;;;;;;;18.92;61.45;102070.75;4890959;28;119781;-77
2022/08/08 01:39:32;;;;;;;21.20;14.90;;;;;;;18.94;61.76;102063.50;4893870;28;122585;-77
2022/08/08 01:42:10;;;;;;;20.60;14.68;;;;;;;18.97;61.08;102065.34;4922513;28;121580;-77
2022/08/08 01:44:52;;;;;;;21.45;14.10;;;;;;;18.98;61.61;102069.66;4909504;28;120156;-77
2022/08/08 01:47:43;;;;;;;22.50;14.75;;;;;;;18.97;61.50;102067.34;4895584;28;119907;-77
2022/08/08 01:50:31;;;;;;;24.13;15.35;;;;;;;18.97;61.38;102061.78;4884897;28;123660;-77
2022/08/08 01:53:08;;;;;;;23.50;15.52;;;;;;;18.94;61.52;102065.53;4926097;28;119645;-77
2022/08/08 01:56:02;;;;;;;22.05;15.25;;;;;;;18.94;61.53;102057.19;4909234;28;120334;-77
2022/08/08 01:58:40;;;;;;;25.40;16.55;;;;;;;18.92;61.56;102063.19;4911966;28;120282;-77
2022/08/08 02:01:33;;;;;;;25.15;16.40;;;;;;;18.91;61.79;102061.66;4909566;28;119508;-77
2022/08/08 02:04:11;;;;;;;25.67;15.80;;;;;;;18.90;61.95;102062.91;4907916;28;120521;-77
2022/08/08 02:07:18;;;;;;;26.67;16.33;;;;;;;18.99;62.14;102065.63;4909178;28;119732;-77
2022/08/08 02:10:06;;;;;;;21.55;15.55;;;;;;;19.02;61.45;102067.47;4911632;28;120489;-77
2022/08/08 02:12:42;;;;;;;23.58;15.93;;;;;;;19.03;61.79;102065.44;4893442;28;121311;-78
2022/08/08 02:15:42;;;;;;;24.85;16.30;;;;;;;19.05;61.71;102059.41;4879767;28;120295;-78
2022/08/08 02:18:14;;;;;;;26.45;16.27;;;;;;;19.05;61.53;102056.63;4890568;28;120106;-76
2022/08/08 02:24:03;;;;;;;23.92;16.20;;;;;;;19.06;62.02;102058.16;4912722;28;119874;-77
2022/08/08 02:26:36;;;;;;;22.35;15.23;;;;;;;19.06;61.61;102055.38;4905083;28;120316;-79
2022/08/08 02:29:40;;;;;;;22.20;15.30;;;;;;;19.11;61.50;102060.28;4925896;28;119959;-77
2022/08/08 02:32:38;;;;;;;22.80;15.63;;;;;;;19.11;61.49;102061.03;4923320;28;119791;-77
2022/08/08 02:35:25;;;;;;;22.17;14.77;;;;;;;19.12;61.53;102067.38;4880858;28;120100;-77
2022/08/08 02:38:02;;;;;;;23.25;15.23;;;;;;;19.11;61.29;102068.63;4899066;28;120350;-77
2022/08/08 02:41:01;;;;;;;23.17;15.20;;;;;;;19.07;61.82;102068.03;4893634;28;119901;-76
2022/08/08 02:43:43;;;;;;;21.17;15.27;;;;;;;19.11;61.60;102077.72;4908084;28;122306;-76
2022/08/08 02:46:21;;;;;;;21.90;15.30;;;;;;;19.12;61.53;102075.72;4906036;28;121534;-76
2022/08/08 02:48:55;;;;;;;23.50;15.63;;;;;;;19.12;61.53;102070.91;4892544;28;123300;-77
2022/08/08 02:52:03;;;;;;;23.02;15.68;;;;;;;19.13;61.73;102066.88;4915842;28;120087;-77
2022/08/08 02:54:48;;;;;;;21.80;14.75;;;;;;;19.12;61.55;102061.81;4907018;28;119794;-77
2022/08/08 02:57:19;;;;;;;22.80;15.63;;;;;;;19.18;61.58;102068.25;4922782;28;120507;-77
2022/08/08 02:59:54;;;;;;;22.80;15.07;;;;;;;19.19;61.25;102072.56;4896072;28;119862;-76
2022/08/08 03:02:29;;;;;;;21.83;15.03;;;;;;;19.21;61.45;102076.41;4911989;28;120306;-76
2022/08/08 03:05:12;;;;;;;23.00;15.43;;;;;;;19.23;61.87;102073.16;4911215;28;121739;-77
2022/08/08 03:08:16;;;;;;;22.10;14.77;;;;;;;19.25;61.30;102070.66;4912433;28;119821;-77
2022/08/08 03:11:22;;;;;;;21.90;14.85;;;;;;;19.28;61.14;102075.28;4899438;28;120237;-77
2022/08/08 03:14:23;;;;;;;23.38;14.90;;;;;;;19.28;61.34;102072.50;4891202;28;120704;-78
2022/08/08 03:17:00;;;;;;;22.10;15.25;;;;;;;19.27;61.28;102070.97;4911565;28;120241;-78
2022/08/08 03:19:40;;;;;;;22.20;14.55;;;;;;;19.29;61.44;102074.03;4895440;28;121568;-79
2022/08/08 03:22:06;;;;;;;23.63;15.50;;;;;;;19.30;61.44;102081.13;4911926;28;120024;-78
2022/08/08 03:24:31;;;;;;;22.93;15.00;;;;;;;19.31;61.52;102085.44;4918866;28;119913;-79
2022/08/08 03:27:23;;;;;;;24.83;15.10;;;;;;;19.31;61.34;102086.22;4911121;28;120108;-76
2022/08/08 03:29:58;;;;;;;21.88;14.95;;;;;;;19.30;61.55;102079.09;4911967;28;120345;-76
2022/08/08 03:35:15;;;;;;;21.40;14.77;;;;;;;19.28;61.13;102089.19;4914713;28;120689;-76
2022/08/08 03:37:41;;;;;;;22.13;14.38;;;;;;;19.25;61.18;102088.13;4894965;28;122571;-76
2022/08/08 03:40:07;;;;;;;21.92;14.20;;;;;;;19.24;61.38;102094.94;4895525;28;122709;-77
2022/08/08 03:42:35;;;;;;;22.05;14.57;;;;;;;19.19;61.19;102087.25;4927153;28;120000;-76
2022/08/08 03:45:11;;;;;;;21.17;14.88;;;;;;;19.17;61.32;102089.75;4913041;28;119976;-77
2022/08/08 03:47:37;;;;;;;19.97;14.33;;;;;;;19.18;61.15;102094.06;4907916;28;120324;-77
2022/08/08 03:50:04;;;;;;;23.02;14.20;;;;;;;19.19;61.38;102089.28;4888804;28;120302;-76
2022/08/08 03:52:33;;;;;;;21.83;14.82;;;;;;;19.15;61.64;102086.66;4885359;28;121957;-76
2022/08/08 03:55:00;;;;;;;20.97;14.20;;;;;;;19.11;61.35;102077.72;4923529;28;119916;-76
2022/08/08 03:57:26;;;;;;;22.05;14.65;;;;;;;19.18;61.40;102087.72;4882155;28;120062;-77
2022/08/08 03:59:51;;;;;;;23.13;14.97;;;;;;;19.16;61.44;102090.19;4927902;28;119947;-76
2022/08/08 04:02:31;;;;;;;25.02;15.43;;;;;;;19.14;61.78;102092.69;4908486;28;120480;-76
2022/08/08 04:05:03;;;;;;;23.63;15.10;;;;;;;19.07;61.62;102082.72;4911773;28;122575;-76
2022/08/08 04:07:38;;;;;;;25.83;15.43;;;;;;;19.10;61.91;102092.09;4894511;28;121395;-76
2022/08/08 04:10:08;;;;;;;23.40;15.20;;;;;;;19.14;62.07;102093.47;4896132;28;120314;-77
2022/08/08 04:12:35;;;;;;;24.40;16.03;;;;;;;19.19;62.17;102100.41;4926939;28;120023;-77
2022/08/08 04:15:01;;;;;;;20.90;14.40;;;;;;;19.15;62.07;102088.66;4910690;28;122759;-76
2022/08/08 04:17:27;;;;;;;22.27;15.20;;;;;;;19.23;62.23;102098.19;4895162;28;119764;-77
2022/08/08 04:19:55;;;;;;;22.20;15.00;;;;;;;19.25;61.93;102087.34;4930122;28;120008;-77
2022/08/08 04:22:21;;;;;;;22.60;15.15;;;;;;;19.35;62.07;102096.38;4910019;28;120177;-77
2022/08/08 04:24:47;;;;;;;20.80;14.90;;;;;;;19.33;61.73;102082.94;4912120;28;120043;-77
2022/08/08 04:27:12;;;;;;;23.73;15.57;;;;;;;19.31;61.87;102082.66;4925991;28;120088;-77
2022/08/08 04:29:38;;;;;;;23.67;15.13;;;;;;;19.43;61.83;102103.13;4926296;28;119692;-77
2022/08/08 04:32:09;;;;;;;23.20;15.40;;;;;;;19.41;61.93;102098.03;4909389;28;121270;-77
2022/08/08 04:34:35;;;;;;;21.52;14.63;;;;;;;19.45;62.21;102101.41;4909035;28;120094;-77
2022/08/08 04:37:01;;;;;;;23.57;14.87;;;;;;;19.50;61.92;102097.94;4921950;28;119696;-79
2022/08/08 04:39:26;;;;;;;20.40;14.48;;;;;;;19.50;61.91;102095.16;4921789;28;119965;-77
2022/08/08 04:41:52;;;;;;;19.77;14.77;;;;;;;19.58;61.71;102104.69;4915252;28;120065;-77
2022/08/08 04:44:17;;;;;;;20.75;14.60;;;;;;;19.55;61.20;102104.88;4923952;28;120086;-77
2022/08/08 04:46:43;;;;;;;21.25;14.73;;;;;;;19.52;61.63;102095.44;4907538;28;121881;-77
2022/08/08 04:49:20;;;;;;;21.60;14.60;;;;;;;19.57;61.50;102105.94;4920851;28;120068;-77
2022/08/08 04:51:46;;;;;;;24.58;15.32;;;;;;;19.62;61.73;102108.03;4903291;28;122492;-77
2022/08/08 04:54:12;;;;;;;21.42;14.32;;;;;;;19.64;61.79;102110.38;4893242;28;123278;-77
2022/08/08 04:56:38;;;;;;;23.63;14.73;;;;;;;19.63;61.57;102101.22;4909616;28;120008;-76
2022/08/08 04:59:10;;;;;;;21.10;15.00;;;;;;;19.66;61.96;102099.53;4900944;28;119727;-77
2022/08/08 05:01:36;;;;;;;22.13;15.02;;;;;;;19.75;61.84;102109.78;4904692;28;123571;-77
2022/08/08 05:04:02;;;;;;;24.40;15.25;;;;;;;19.79;61.89;102102.78;4891584;28;122589;-77
2022/08/08 05:06:32;;;;;;;21.23;14.55;;;;;;;19.83;62.11;102102.56;4890817;28;121782;-77
2022/08/08 05:08:57;;;;;;;21.55;14.98;;;;;;;19.91;62.16;102118.44;4908500;28;119758;-76
2022/08/08 05:11:24;;;;;;;23.38;14.95;;;;;;;19.96;61.75;102116.97;4909985;28;119738;-76
2022/08/08 05:13:54;;;;;;;20.25;14.15;;;;;;;19.99;61.44;102110.44;4890530;28;120670;-76
2022/08/08 05:16:21;;;;;;;20.45;14.55;;;;;;;20.01;61.95;102113.53;4914292;28;119966;-77
2022/08/08 05:19:11;;;;;;;22.80;14.15;;;;;;;20.13;61.86;102123.59;4896017;28;119930;-77
2022/08/08 05:21:46;;;;;;;21.42;13.70;;;;;;;20.20;62.01;102120.41;4925150;28;120500;-77
2022/08/08 05:24:11;;;;;;;20.42;13.27;;;;;;;20.28;61.61;102114.44;4923376;28;119526;-77
2022/08/08 05:26:40;;;;;;;19.95;12.75;;;;;;;20.32;61.38;102109.44;4897185;28;123006;-77
2022/08/08 05:29:09;;;;;;;18.08;12.82;;;;;;;20.38;61.56;102118.66;4909895;28;119905;-77
2022/08/08 05:31:38;;;;;;;16.97;12.23;;;;;;;20.46;61.50;102117.78;4890035;28;120385;-77
2022/08/08 05:34:15;;;;;;;18.45;12.10;;;;;;;20.52;61.75;102117.84;4909291;28;122813;-77
2022/08/08 05:36:44;;;;;;;17.48;11.65;;;;;;;20.63;61.50;102120.81;4900152;28;120348;-77
2022/08/08 05:39:12;;;;;;;17.35;10.98;;;;;;;20.73;61.95;102121.44;4921213;28;120220;-77
2022/08/08 05:41:41;;;;;;;15.40;11.17;;;;;;;20.83;61.71;102120.84;4918401;28;120457;-77
2022/08/08 05:44:12;;;;;;;15.70;10.80;;;;;;;20.91;61.25;102117.63;4882522;28;121431;-77
2022/08/08 05:46:39;;;;;;;15.95;10.82;;;;;;;21.03;60.50;102127.66;4911628;28;119800;-76
2022/08/08 05:49:07;;;;;;;18.63;10.50;;;;;;;21.10;60.31;102130.03;4899102;28;119671;-77
2022/08/08 05:51:56;;;;;;;16.17;10.82;;;;;;;21.19;59.79;102134.69;4897658;28;120321;-76
2022/08/08 05:54:23;;;;;;;16.33;10.35;;;;;;;21.25;59.78;102138.34;4886872;28;120269;-77
2022/08/08 05:56:52;;;;;;;18.77;11.20;;;;;;;21.28;60.04;102132.53;4920839;28;120253;-77
2022/08/08 05:59:23;;;;;;;14.82;10.23;;;;;;;21.33;60.08;102145.03;4901263;28;122052;-78
2022/08/08 06:01:57;;;;;;;15.18;9.75;;;;;;;21.34;60.14;102133.41;4916418;28;120079;-79
2022/08/08 06:04:28;;;;;;;14.77;9.80;;;;;;;21.49;59.65;102146.47;4922765;28;120135;-76
2022/08/08 06:06:59;;;;;;;14.18;9.35;;;;;;;21.55;59.58;102153.66;4914333;28;119898;-76
2022/08/08 06:09:31;;;;;;;14.52;8.55;;;;;;;21.63;59.88;102145.63;4887306;28;123062;-77
2022/08/08 06:11:59;;;;;;;14.65;9.15;;;;;;;21.69;59.96;102152.78;4890294;28;120597;-77
2022/08/08 06:14:29;;;;;;;15.27;8.00;;;;;;;21.72;58.73;102145.44;4902773;28;122809;-77
2022/08/08 06:16:59;;;;;;;11.50;7.83;;;;;;;21.81;59.48;102150.09;4866520;28;120341;-76
2022/08/08 06:20:14;;;;;;;12.23;6.70;;;;;;;21.82;58.81;102146.06;4875383;28;120572;-77
2022/08/08 06:22:41;;;;;;;11.48;6.97;;;;;;;21.84;58.93;102146.31;4899753;28;120508;-77
2022/08/08 06:25:13;;;;;;;11.18;6.85;;;;;;;21.87;59.31;102143.31;4901980;28;119995;-77
2022/08/08 06:27:51;;;;;;;10.07;6.70;;;;;;;21.96;58.27;102154.28;4897341;28;119703;-76
2022/08/08 06:30:20;;;;;;;11.10;6.40;;;;;;;21.98;58.52;102154.56;4915594;28;120134;-77
2022/08/08 06:32:51;;;;;;;11.40;6.45;;;;;;;22.07;58.76;102155.69;4900670;28;120287;-77
2022/08/08 06:35:20;;;;;;;10.90;6.53;;;;;;;22.11;58.88;102153.44;4883730;28;122814;-77
2022/08/08 06:38:00;;;;;;;16.80;6.82;;;;;;;22.10;59.07;102149.09;4923033;28;119932;-76
2022/08/08 06:40:31;;;;;;;9.77;5.80;;;;;;;22.16;59.56;102147.88;4899736;28;120307;-76
2022/08/08 06:43:01;;;;;;;10.68;5.90;;;;;;;22.26;59.06;102154.06;4897760;28;122577;-77
2022/08/08 06:45:36;;;;;;;11.27;5.82;;;;;;;22.31;59.01;102158.94;4881139;28;120651;-77
2022/08/08 06:48:03;;;;;;;12.33;5.97;;;;;;;22.40;58.78;102160.75;4882698;28;120508;-77
2022/08/08 06:50:33;;;;;;;10.10;5.78;;;;;;;22.49;59.21;102163.38;4913994;28;121088;-78
2022/08/08 06:53:02;;;;;;;10.80;5.57;;;;;;;22.53;58.43;102152.72;4910270;28;119897;-78
2022/08/08 06:55:29;;;;;;;9.43;5.60;;;;;;;22.63;59.21;102168.78;4904908;28;120801;-77
2022/08/08 06:57:57;;;;;;;9.98;5.38;;;;;;;22.67;57.91;102169.31;4915846;28;120576;-78
2022/08/08 07:00:24;;;;;;;11.13;5.40;;;;;;;22.73;58.15;102177.00;4874348;28;122253;-77
2022/08/08 07:02:57;;;;;;;9.20;5.13;;;;;;;22.75;57.90;102172.44;4882645;28;123470;-76
2022/08/08 07:05:24;;;;;;;11.90;5.18;;;;;;;22.82;57.83;102171.22;4915038;28;120274;-78
2022/08/08 07:08:08;;;;;;;9.10;4.70;;;;;;;22.87;57.93;102173.28;4903397;28;120537;-78
2022/08/08 07:10:40;;;;;;;11.23;4.90;;;;;;;22.89;57.69;102174.31;4903731;28;120893;-78
2022/08/08 07:13:09;;;;;;;9.77;4.60;;;;;;;22.87;57.83;102170.47;4885224;28;120335;-78
2022/08/08 07:15:46;;;;;;;7.53;4.25;;;;;;;22.97;57.72;102180.22;4924650;28;120184;-78
2022/08/08 07:18:33;;;;;;;6.53;3.80;;;;;;;23.05;57.88;102178.47;4905037;28;122322;-78
2022/08/08 07:21:05;;;;;;;7.47;3.90;;;;;;;23.16;56.54;102186.91;4902872;28;120737;-77
2022/08/08 07:24:06;;;;;;;8.15;3.40;;;;;;;23.27;57.31;102183.38;4883550;28;122217;-77
2022/08/08 07:26:40;;;;;;;12.40;3.55;;;;;;;23.34;56.67;102179.34;4905525;28;121194;-78
2022/08/08 07:29:09;;;;;;;8.83;3.10;;;;;;;23.41;54.76;102188.00;4902708;28;120163;-77
2022/08/08 07:31:35;;;;;;;7.18;2.67;;;;;;;23.47;54.98;102199.25;4918917;28;120744;-78
2022/08/08 07:34:03;;;;;;;5.90;2.50;;;;;;;23.50;54.07;102192.63;4920847;28;120327;-77
2022/08/08 07:36:31;;;;;;;6.43;2.30;;;;;;;23.52;53.92;102202.06;4919571;28;120494;-78
2022/08/08 07:38:57;;;;;;;7.63;2.47;;;;;;;23.56;54.06;102207.44;4892698;28;123465;-78
2022/08/08 07:41:24;;;;;;;7.88;2.75;;;;;;;23.57;54.17;102198.53;4882923;28;120933;-78
2022/08/08 07:43:53;;;;;;;7.15;3.17;;;;;;;23.62;54.52;102197.00;4906203;28;120975;-78
2022/08/08 07:46:19;;;;;;;6.87;2.93;;;;;;;23.65;55.20;102196.00;4920275;28;121531;-78
2022/08/08 07:48:45;;;;;;;7.80;2.70;;;;;;;23.74;53.53;102201.38;4902022;28;122968;-78
2022/08/08 07:51:10;;;;;;;8.30;3.10;;;;;;;23.80;53.64;102204.94;4904099;28;124005;-78
2022/08/08 07:54:18;;;;;;;6.85;2.85;;;;;;;23.88;53.14;102213.59;4906680;28;120590;-78
2022/08/08 07:57:09;;;;;;;5.63;2.40;;;;;;;23.86;52.35;102202.91;4905029;28;120764;-77
2022/08/08 07:59:45;;;;;;;7.20;2.63;;;;;;;23.82;52.81;102202.41;4890661;28;123663;-77
2022/08/08 08:02:19;;;;;;;8.90;2.83;;;;;;;23.84;52.96;102211.06;4894162;28;121055;-77
2022/08/08 08:04:55;;;;;;;4.95;2.30;;;;;;;23.88;53.02;102203.16;4919778;28;121368;-77
2022/08/08 08:07:24;;;;;;;6.93;2.63;;;;;;;24.01;52.87;102210.31;4903134;28;121068;-77
2022/08/08 08:09:50;;;;;;;6.88;2.78;;;;;;;24.09;52.15;102205.72;4905377;28;121888;-78
2022/08/08 08:12:19;;;;;;;6.10;2.50;;;;;;;24.15;52.23;102212.13;4904822;28;120909;-78
2022/08/08 08:15:00;;;;;;;6.47;2.53;;;;;;;24.28;51.40;102209.59;4902652;28;121897;-79
2022/08/08 08:17:29;;;;;;;7.38;2.67;;;;;;;24.40;51.84;102211.13;4904775;28;121076;-79
2022/08/08 08:19:58;;;;;;;6.57;2.25;;;;;;;24.59;52.54;102202.94;4905383;28;121753;-78
2022/08/08 08:22:24;;;;;;;5.63;2.23;;;;;;;24.94;50.76;102218.44;4882900;28;122668;-79
2022/08/08 08:24:51;;;;;;;6.05;1.90;;;;;;;25.18;50.80;102215.06;4924438;28;121925;-78
2022/08/08 08:27:20;;;;;;;5.82;2.10;;;;;;;25.27;49.40;102207.09;4889744;28;123073;-78
2022/08/08 08:30:03;;;;;;;6.72;2.20;;;;;;;25.26;48.45;102211.19;4919373;28;122939;-79
2022/08/08 08:32:35;;;;;;;7.47;2.40;;;;;;;25.21;48.80;102214.03;4902894;28;121834;-78
2022/08/08 08:35:03;;;;;;;6.83;2.40;;;;;;;25.29;49.61;102220.63;4904819;28;121703;-77
2022/08/08 08:37:29;;;;;;;5.27;2.03;;;;;;;25.45;49.51;102213.41;4905383;28;122160;-77
2022/08/08 08:39:55;;;;;;;6.72;2.20;;;;;;;25.68;48.56;102212.03;4921046;28;123067;-78
2022/08/08 08:42:23;;;;;;;7.43;2.15;;;;;;;25.83;48.15;102204.00;4920089;28;122278;-78
2022/08/08 08:44:50;;;;;;;5.50;1.85;;;;;;;26.08;48.33;102216.09;4907497;28;124304;-78
2022/08/08 08:47:17;;;;;;;5.28;2.03;;;;;;;26.22;47.39;102202.94;4887565;28;122319;-78
2022/08/08 08:49:43;;;;;;;5.43;2.00;;;;;;;26.26;47.02;102214.66;4889824;28;124544;-78
2022/08/08 08:52:16;;;;;;;5.38;1.90;;;;;;;26.25;47.15;102219.50;4904532;28;122789;-78
2022/08/08 08:54:44;;;;;;;4.65;1.90;;;;;;;26.24;46.44;102220.03;4920994;28;122553;-78
2022/08/08 08:57:10;;;;;;;5.97;2.20;;;;;;;26.14;46.35;102219.63;4903256;28;122650;-79
2022/08/08 08:59:41;;;;;;;6.57;2.00;;;;;;;26.00;46.56;102212.31;4903860;28;123249;-77
2022/08/08 09:02:17;;;;;;;5.75;2.10;;;;;;;25.83;47.61;102217.31;4901021;28;122107;-78
2022/08/08 09:04:46;;;;;;;5.10;2.20;;;;;;;25.78;48.63;102215.28;4921606;28;121805;-78
2022/08/08 09:07:21;;;;;;;6.40;1.90;;;;;;;25.78;47.94;102227.28;4890755;28;125071;-78
2022/08/08 09:09:51;;;;;;;6.10;1.80;;;;;;;25.70;47.16;102231.94;4905458;28;121822;-77
2022/08/08 09:12:24;;;;;;;4.22;1.63;;;;;;;25.59;48.09;102229.94;4888734;28;123282;-77
2022/08/08 09:14:52;;;;;;;5.33;1.83;;;;;;;25.55;48.30;102225.84;4905017;28;124232;-78
2022/08/08 09:17:24;;;;;;;6.60;2.30;;;;;;;25.49;49.08;102233.53;4903564;28;122278;-78
2022/08/08 09:19:55;;;;;;;8.48;2.95;;;;;;;25.42;48.05;102231.28;4871254;28;124026;-78
2022/08/08 09:22:22;;;;;;;5.03;1.80;;;;;;;25.30;49.37;102231.31;4905556;28;122352;-78
2022/08/08 09:24:49;;;;;;;5.40;1.73;;;;;;;25.23;48.63;102231.13;4903972;28;122275;-78
2022/08/08 09:27:16;;;;;;;5.67;1.93;;;;;;;25.14;48.58;102232.19;4904265;28;122207;-78
2022/08/08 09:29:51;;;;;;;4.80;1.80;;;;;;;25.10;49.19;102234.50;4909639;28;122036;-78
2022/08/08 09:32:49;;;;;;;6.13;1.80;;;;;;;25.11;49.51;102227.59;4888222;28;123121;-77
2022/08/08 09:35:50;;;;;;;4.40;1.73;;;;;;;25.22;49.10;102229.59;4913058;28;122159;-77
2022/08/08 09:38:30;;;;;;;6.37;2.00;;;;;;;25.59;49.42;102238.38;4870536;28;122837;-77
2022/08/08 09:41:03;;;;;;;4.53;1.65;;;;;;;26.01;48.35;102239.13;4886025;28;124167;-78
2022/08/08 09:43:33;;;;;;;4.32;1.55;;;;;;;26.33;46.84;102235.84;4902966;28;122114;-78
2022/08/08 09:46:00;;;;;;;3.85;1.55;;;;;;;26.43;45.68;102237.03;4902544;28;122480;-77
2022/08/08 09:48:31;;;;;;;4.28;1.75;;;;;;;26.38;45.68;102229.44;4903368;28;125748;-78
2022/08/08 09:50:57;;;;;;;3.33;1.38;;;;;;;26.22;45.60;102231.06;4887067;28;122225;-78
2022/08/08 09:53:34;;;;;;;5.78;1.58;;;;;;;26.10;45.86;102233.22;4907001;28;124522;-77
2022/08/08 09:56:03;;;;;;;5.13;1.43;;;;;;;25.95;45.42;102224.34;4903587;28;122193;-77
2022/08/08 09:58:36;;;;;;;4.35;1.60;;;;;;;25.77;46.76;102233.41;4903414;28;122493;-78
2022/08/08 10:01:05;;;;;;;3.75;1.60;;;;;;;25.60;47.31;102231.47;4901715;28;122885;-78
2022/08/08 10:03:35;;;;;;;4.60;1.70;;;;;;;25.44;49.04;102243.53;4903104;28;122446;-78
2022/08/08 10:06:11;;;;;;;5.93;1.67;;;;;;;25.27;48.52;102246.41;4883668;28;123047;-78
2022/08/08 10:08:47;;;;;;;7.45;2.22;;;;;;;25.01;49.96;102243.19;4905278;28;122464;-77
2022/08/08 10:11:20;;;;;;;6.80;1.98;;;;;;;24.82;50.19;102251.34;4921424;28;121650;-77
2022/08/08 10:14:00;;;;;;;5.80;2.20;;;;;;;24.60;52.63;102245.78;4905327;28;121653;-79
2022/08/08 10:16:42;;;;;;;7.80;2.53;;;;;;;24.45;53.62;102244.00;4890292;28;122969;-80
2022/08/08 10:19:12;;;;;;;5.30;2.40;;;;;;;24.33;53.66;102250.88;4913956;28;121731;-79
2022/08/08 10:21:38;;;;;;;3.47;2.25;;;;;;;24.21;54.24;102246.53;4917291;28;125660;-80
2022/08/08 10:24:09;;;;;;;5.63;2.28;;;;;;;24.16;54.63;102248.06;4919332;28;122066;-79
2022/08/08 10:26:45;;;;;;;7.00;2.20;;;;;;;24.21;54.84;102254.94;4901185;28;121684;-78
2022/08/08 10:29:14;;;;;;;5.03;2.38;;;;;;;24.21;54.27;102243.72;4885792;28;122988;-79
2022/08/08 10:34:27;;;;;;;5.60;1.80;;;;;;;24.40;52.93;102238.41;4902229;28;121750;-80
2022/08/08 10:36:55;;;;;;;4.90;2.10;;;;;;;24.58;52.78;102248.31;4901034;28;123202;-79
2022/08/08 10:39:23;;;;;;;6.47;2.30;;;;;;;24.75;52.60;102246.28;4905606;28;121964;-80
2022/08/08 10:42:03;;;;;;;5.47;1.70;;;;;;;24.92;51.03;102246.25;4900571;28;122380;-79
2022/08/08 10:44:40;;;;;;;6.38;1.95;;;;;;;25.07;51.21;102250.31;4900816;28;122785;-79
2022/08/08 10:47:11;;;;;;;7.07;1.90;;;;;;;25.20;49.34;102240.56;4885158;28;123698;-79
2022/08/08 10:49:40;;;;;;;5.43;1.80;;;;;;;25.29;49.00;102231.84;4902148;28;122733;-79
2022/08/08 10:52:05;;;;;;;4.40;1.80;;;;;;;25.52;48.49;102241.69;4885078;28;122452;-79
2022/08/08 10:54:31;;;;;;;3.88;1.55;;;;;;;25.65;47.98;102230.66;4899412;28;122268;-79
2022/08/08 10:56:58;;;;;;;3.30;1.60;;;;;;;25.89;49.22;102246.13;4897808;28;125648;-79
2022/08/08 10:59:25;;;;;;;4.33;1.90;;;;;;;25.99;47.64;102241.72;4887918;28;122366;-79
2022/08/08 11:01:51;;;;;;;5.18;1.60;;;;;;;26.01;47.08;102245.53;4901225;28;122456;-80
2022/08/08 11:04:16;;;;;;;4.83;1.50;;;;;;;26.07;46.45;102242.69;4900383;28;123006;-79
2022/08/08 11:06:42;;;;;;;6.63;1.73;;;;;;;26.10;46.54;102243.69;4883948;28;124274;-78
2022/08/08 11:09:09;;;;;;;4.60;1.70;;;;;;;26.10;48.16;102232.44;4900821;28;122697;-80
2022/08/08 11:11:40;;;;;;;4.00;1.55;;;;;;;26.15;46.72;102231.63;4902284;28;122019;-79
2022/08/08 11:14:07;;;;;;;4.18;1.60;;;;;;;26.26;46.71;102237.16;4902577;28;122375;-80
2022/08/08 11:16:42;;;;;;;4.45;1.48;;;;;;;26.29;46.38;102228.44;4881669;28;126976;-79
2022/08/08 11:19:08;;;;;;;5.43;1.53;;;;;;;26.37;45.28;102236.34;4865855;28;122358;-78
2022/08/08 11:21:39;;;;;;;3.92;1.60;;;;;;;26.41;44.88;102231.19;4908009;28;123880;-79
2022/08/08 11:24:07;;;;;;;5.40;1.63;;;;;;;26.45;47.04;102237.28;4888821;28;122769;-78
2022/08/08 11:26:37;;;;;;;3.75;1.60;;;;;;;26.47;46.43;102223.44;4887299;28;124150;-79
2022/08/08 11:29:05;;;;;;;3.75;1.50;;;;;;;26.56;46.07;102231.56;4903579;28;125612;-79
2022/08/08 11:31:50;;;;;;;3.50;1.40;;;;;;;26.55;45.52;102224.41;4905077;28;126527;-79
2022/08/08 11:34:18;;;;;;;6.05;1.92;;;;;;;26.57;46.09;102233.09;4887269;28;123397;-79
2022/08/08 11:36:44;;;;;;;4.45;1.45;;;;;;;26.55;45.49;102235.66;4885993;28;125124;-79
2022/08/08 11:39:11;;;;;;;3.08;1.30;;;;;;;26.46;44.91;102233.94;4888174;28;123362;-79
2022/08/08 11:41:37;;;;;;;4.78;1.50;;;;;;;26.37;45.78;102237.09;4901809;28;125501;-79
2022/08/08 11:44:04;;;;;;;4.10;1.50;;;;;;;26.28;46.17;102221.31;4906368;28;125371;-79
2022/08/08 11:46:33;;;;;;;3.90;1.30;;;;;;;26.18;46.07;102225.72;4919941;28;124353;-79
2022/08/08 11:49:06;;;;;;;4.30;1.70;;;;;;;26.19;46.28;102234.91;4903480;28;125351;-79
2022/08/08 11:51:33;;;;;;;4.13;1.43;;;;;;;26.15;45.78;102226.78;4907259;28;124122;-79
2022/08/08 11:53:59;;;;;;;3.25;1.50;;;;;;;26.18;45.38;102231.34;4906549;28;123250;-79